Time;durP1;ratioP1;P1;durP2;ratioP2;P2;SDS_P1;SDS_P2;PMS_P1;PMS_P2;Temp;Humidity;BMP_temperature;BMP_pressure;BME280_temperature;BME280_humidity;BME280_pressure;Samples;Min_cycle;Max_cycle;Signal;HPM_P1;HPM_P2
2022/03/02 00:00:39;;;;;;;34.75;20.17;;;;;;;5.34;69.05;102530.63;6279884;22;20008;-60
2022/03/02 00:03:04;;;;;;;33.80;19.13;;;;;;;5.23;68.82;102528.50;6279663;22;20016;-60
2022/03/02 00:05:30;;;;;;;32.17;20.02;;;;;;;5.13;68.89;102523.84;6275392;22;20012;-60
2022/03/02 00:07:55;;;;;;;34.25;19.38;;;;;;;5.08;70.13;102529.69;6279472;22;20057;-60
2022/03/02 00:10:21;;;;;;;32.85;19.55;;;;;;;5.02;69.92;102530.31;6279872;22;20068;-60
2022/03/02 00:12:46;;;;;;;33.47;19.98;;;;;;;4.98;72.25;102535.38;6279532;22;20377;-60
2022/03/02 00:15:11;;;;;;;35.00;20.20;;;;;;;4.95;71.45;102541.34;6279078;22;20030;-62
2022/03/02 00:17:37;;;;;;;33.30;20.35;;;;;;;4.94;71.06;102536.09;6278988;22;20065;-60
2022/03/02 00:20:04;;;;;;;35.10;19.90;;;;;;;4.92;70.93;102536.03;6279077;22;20313;-60
2022/03/02 00:22:30;;;;;;;33.35;20.80;;;;;;;4.71;70.28;102505.00;6279760;22;20014;-62
2022/03/02 00:24:55;;;;;;;36.35;20.85;;;;;;;4.86;70.09;102535.78;6278928;22;19999;-60
2022/03/02 00:27:24;;;;;;;30.52;19.92;;;;;;;4.79;69.79;102539.00;6279121;22;20004;-60
2022/03/02 00:29:51;;;;;;;32.55;20.02;;;;;;;4.75;70.61;102542.28;6279161;22;20022;-60
2022/03/02 00:32:16;;;;;;;37.10;21.75;;;;;;;4.67;70.30;102538.56;6279377;22;20008;-61
2022/03/02 00:34:42;;;;;;;37.67;20.88;;;;;;;4.67;71.92;102538.56;6279355;22;20092;-60
2022/03/02 00:37:07;;;;;;;37.97;21.25;;;;;;;4.52;72.26;102508.59;6279291;22;20389;-62
2022/03/02 00:39:33;;;;;;;35.50;21.25;;;;;;;4.66;72.29;102534.19;6279501;22;20004;-61
2022/03/02 00:41:59;;;;;;;32.95;21.15;;;;;;;4.62;72.77;102533.19;6279360;22;20004;-61
2022/03/02 00:44:24;;;;;;;35.83;22.25;;;;;;;4.61;72.13;102527.94;6278941;22;20404;-60
2022/03/02 00:46:50;;;;;;;35.90;21.38;;;;;;;4.56;73.28;102519.97;6278808;22;20007;-60
2022/03/02 00:49:16;;;;;;;35.33;21.95;;;;;;;4.56;73.84;102530.34;6279015;22;20003;-59
2022/03/02 00:51:41;;;;;;;36.58;21.42;;;;;;;4.51;75.01;102524.97;6279205;22;20034;-61
2022/03/02 00:54:07;;;;;;;33.25;21.45;;;;;;;4.54;73.05;102526.81;6278867;22;20012;-61
2022/03/02 00:56:32;;;;;;;35.53;21.45;;;;;;;4.45;75.14;102532.53;6278844;22;20022;-60
2022/03/02 00:58:58;;;;;;;36.40;21.75;;;;;;;4.40;75.86;102525.41;6274084;22;20015;-60
2022/03/02 01:01:23;;;;;;;40.95;22.15;;;;;;;4.33;75.79;102518.22;6279099;22;20305;-60
2022/03/02 01:03:49;;;;;;;35.15;21.50;;;;;;;4.38;73.90;102520.16;6279044;22;20021;-60
2022/03/02 01:06:14;;;;;;;38.10;21.75;;;;;;;4.35;74.71;102513.97;6279390;22;20443;-60
2022/03/02 01:08:40;;;;;;;36.58;21.85;;;;;;;4.31;75.22;102514.69;6278751;22;20012;-59
2022/03/02 01:11:05;;;;;;;36.13;21.70;;;;;;;4.31;75.38;102513.00;6278597;22;20016;-61
2022/03/02 01:13:30;;;;;;;33.08;21.38;;;;;;;4.31;74.63;102506.91;6278653;22;20004;-61
2022/03/02 01:15:55;;;;;;;37.53;21.80;;;;;;;4.31;75.26;102506.91;6278822;22;20072;-60
2022/03/02 01:18:21;;;;;;;36.40;21.27;;;;;;;4.26;74.09;102508.44;6279163;22;20004;-61
2022/03/02 01:20:46;;;;;;;31.42;20.30;;;;;;;4.22;75.41;102502.25;6279043;22;20008;-60
2022/03/02 01:23:12;;;;;;;36.88;21.40;;;;;;;4.23;75.50;102503.13;6279017;22;20004;-60
2022/03/02 01:25:37;;;;;;;38.30;21.55;;;;;;;4.15;74.04;102495.06;6279083;22;20007;-59
2022/03/02 01:28:03;;;;;;;35.67;20.65;;;;;;;4.19;73.26;102500.41;6278827;22;20083;-61
2022/03/02 01:30:28;;;;;;;37.58;21.52;;;;;;;4.15;73.86;102490.78;6278403;22;20356;-61
2022/03/02 01:32:54;;;;;;;35.13;21.25;;;;;;;4.14;75.16;102494.19;6279020;22;20007;-60
2022/03/02 01:35:19;;;;;;;35.50;20.60;;;;;;;4.15;72.98;102484.72;6279082;22;20003;-60
2022/03/02 01:37:45;;;;;;;32.03;19.52;;;;;;;4.13;71.32;102482.06;6278863;22;20377;-59
2022/03/02 01:40:10;;;;;;;34.25;20.52;;;;;;;4.12;74.22;102488.06;6278519;22;20000;-60
2022/03/02 01:42:40;;;;;;;33.63;20.48;;;;;;;4.12;73.52;102482.00;6252008;22;20000;-61
2022/03/02 01:45:07;;;;;;;34.85;20.02;;;;;;;4.10;73.86;102481.06;6278789;22;20011;-60
2022/03/02 01:47:33;;;;;;;35.53;20.70;;;;;;;4.08;73.04;102482.69;6278618;22;20010;-62
2022/03/02 01:49:58;;;;;;;31.98;19.63;;;;;;;4.02;71.45;102488.50;6279277;22;20074;-60
2022/03/02 01:52:24;;;;;;;36.30;19.98;;;;;;;4.00;73.14;102481.50;6278175;22;20395;-60
2022/03/02 01:54:49;;;;;;;33.53;19.70;;;;;;;3.97;72.51;102479.69;6278737;22;20007;-59
2022/03/02 01:57:14;;;;;;;32.95;19.88;;;;;;;3.98;72.79;102472.81;6278420;22;20003;-61
2022/03/02 01:59:40;;;;;;;34.17;20.48;;;;;;;3.99;73.98;102478.03;6278447;22;20039;-60
2022/03/02 02:02:06;;;;;;;33.38;19.70;;;;;;;3.98;72.95;102475.41;6278381;22;20397;-60
2022/03/02 02:04:31;;;;;;;32.67;19.92;;;;;;;4.00;72.08;102474.59;6278567;22;20014;-60
2022/03/02 02:06:56;;;;;;;33.58;19.40;;;;;;;3.99;72.98;102472.84;6278705;22;20332;-60
2022/03/02 02:09:22;;;;;;;33.55;19.42;;;;;;;3.99;68.53;102470.25;6278601;22;20087;-59
2022/03/02 02:11:47;;;;;;;32.53;18.75;;;;;;;4.02;70.21;102460.00;6278453;22;20289;-60
2022/03/02 02:14:13;;;;;;;33.00;19.50;;;;;;;4.00;70.17;102453.00;6278329;22;20004;-60
2022/03/02 02:16:38;;;;;;;31.05;18.58;;;;;;;4.02;68.81;102453.94;6278430;22;20094;-59
2022/03/02 02:19:04;;;;;;;37.83;19.67;;;;;;;4.05;69.58;102459.25;6278499;22;20328;-61
2022/03/02 02:21:29;;;;;;;33.58;19.50;;;;;;;4.00;70.19;102464.25;6278002;22;20020;-60
2022/03/02 02:23:54;;;;;;;30.67;19.15;;;;;;;4.08;69.76;102461.97;6278678;22;20008;-60
2022/03/02 02:26:21;;;;;;;34.95;19.83;;;;;;;4.09;69.08;102463.75;6278428;22;20051;-61
2022/03/02 02:28:47;;;;;;;34.47;20.25;;;;;;;4.10;70.88;102461.22;6278281;22;20022;-60
2022/03/02 02:31:13;;;;;;;36.35;18.90;;;;;;;4.09;67.99;102462.03;6278475;22;20019;-60
2022/03/02 02:33:38;;;;;;;28.38;17.45;;;;;;;4.11;68.64;102455.22;6278296;22;20165;-59
2022/03/02 02:36:05;;;;;;;31.33;18.30;;;;;;;4.06;70.04;102448.06;6278749;22;20008;-61
2022/03/02 02:38:30;;;;;;;31.63;19.75;;;;;;;4.03;72.39;102448.84;6278677;22;20003;-60
2022/03/02 02:40:56;;;;;;;30.88;18.80;;;;;;;4.04;68.21;102442.84;6277956;22;20000;-60
2022/03/02 02:43:24;;;;;;;28.88;18.40;;;;;;;4.03;69.13;102447.94;6278117;22;20087;-60
2022/03/02 02:45:49;;;;;;;30.30;18.83;;;;;;;3.97;69.14;102437.38;6278244;22;20039;-62
2022/03/02 02:48:15;;;;;;;36.53;19.73;;;;;;;3.93;69.63;102441.53;6278320;22;20378;-60
2022/03/02 02:50:40;;;;;;;35.42;19.77;;;;;;;3.98;70.36;102436.56;6278828;22;20368;-61
2022/03/02 02:53:08;;;;;;;29.63;18.85;;;;;;;3.99;69.97;102438.28;6278529;22;20343;-59
2022/03/02 02:55:35;;;;;;;32.42;19.58;;;;;;;3.98;69.89;102441.72;6279995;22;20011;-60
2022/03/02 02:58:01;;;;;;;31.23;18.95;;;;;;;3.92;68.51;102439.78;6279698;22;20424;-61
2022/03/02 03:00:34;;;;;;;36.83;19.80;;;;;;;3.93;70.88;102444.13;6280337;22;20026;-60
2022/03/02 03:03:00;;;;;;;31.85;19.73;;;;;;;3.97;69.17;102445.13;6280428;22;20075;-59
2022/03/02 03:05:29;;;;;;;32.50;19.70;;;;;;;3.99;70.31;102446.94;6280338;22;20004;-60
2022/03/02 03:07:54;;;;;;;27.67;18.13;;;;;;;4.00;67.10;102445.22;6280244;22;20007;-60
2022/03/02 03:10:20;;;;;;;31.73;18.25;;;;;;;3.98;67.79;102447.78;6279924;22;20019;-60
2022/03/02 03:12:47;;;;;;;30.90;18.60;;;;;;;3.99;68.26;102443.47;6279626;22;20385;-60
2022/03/02 03:15:15;;;;;;;32.28;18.48;;;;;;;3.99;68.00;102436.56;6280149;22;20003;-60
2022/03/02 03:17:41;;;;;;;34.67;18.90;;;;;;;4.02;68.61;102438.41;6274944;22;20020;-60
2022/03/02 03:20:10;;;;;;;29.90;17.98;;;;;;;4.01;67.19;102434.94;6280099;22;20300;-60
2022/03/02 03:22:36;;;;;;;32.60;17.40;;;;;;;4.01;66.82;102434.94;6279998;22;20003;-60
2022/03/02 03:25:02;;;;;;;32.70;17.90;;;;;;;3.96;68.18;102428.72;6279872;22;20076;-59
2022/03/02 03:27:28;;;;;;;29.17;17.60;;;;;;;3.96;68.84;102431.31;6280462;22;20014;-60
2022/03/02 03:29:53;;;;;;;30.17;18.38;;;;;;;3.96;68.47;102427.84;6279984;22;20075;-60
2022/03/02 03:32:18;;;;;;;27.42;17.13;;;;;;;3.99;68.45;102434.00;6279802;22;20000;-59
2022/03/02 03:34:44;;;;;;;29.70;17.27;;;;;;;3.97;67.12;102432.19;6279608;22;20004;-60
2022/03/02 03:37:09;;;;;;;30.70;17.05;;;;;;;3.90;67.42;102440.53;6280015;22;20012;-60
2022/03/02 03:39:35;;;;;;;31.70;17.40;;;;;;;3.88;68.85;102432.69;6279768;22;20297;-59
2022/03/02 03:42:00;;;;;;;32.45;18.67;;;;;;;3.88;69.44;102427.53;6279498;22;20004;-60
2022/03/02 03:44:26;;;;;;;29.35;17.60;;;;;;;3.86;71.20;102429.16;6279824;22;20000;-59
2022/03/02 03:46:51;;;;;;;28.55;17.42;;;;;;;3.80;69.06;102422.06;6279410;22;20019;-59
2022/03/02 03:49:17;;;;;;;31.70;17.67;;;;;;;3.84;67.84;102423.03;6279853;22;20078;-60
2022/03/02 03:51:43;;;;;;;30.30;16.63;;;;;;;3.84;66.43;102430.81;6280048;22;20086;-60
2022/03/02 03:54:09;;;;;;;30.48;17.02;;;;;;;3.85;66.70;102430.00;6279770;22;20008;-60
2022/03/02 03:56:34;;;;;;;29.75;16.98;;;;;;;3.81;67.21;102428.97;6279347;22;20007;-60
2022/03/02 03:59:00;;;;;;;30.20;17.17;;;;;;;3.72;66.70;102415.69;6279222;22;20007;-60
2022/03/02 04:01:26;;;;;;;28.58;16.95;;;;;;;3.75;66.47;102428.75;6279339;22;20018;-60
2022/03/02 04:03:51;;;;;;;27.10;16.05;;;;;;;3.72;65.22;102423.44;6279663;22;20134;-60
2022/03/02 04:06:16;;;;;;;30.15;17.33;;;;;;;3.70;66.67;102422.50;6279892;22;20027;-61
2022/03/02 04:08:42;;;;;;;28.48;15.85;;;;;;;3.71;65.84;102418.22;6279144;22;20083;-59
2022/03/02 04:11:08;;;;;;;26.30;15.77;;;;;;;3.74;65.87;102416.63;6279342;22;20015;-59
2022/03/02 04:13:33;;;;;;;27.85;16.88;;;;;;;3.73;65.85;102417.44;6279429;22;20075;-62
2022/03/02 04:15:58;;;;;;;29.00;16.63;;;;;;;3.72;66.28;102412.22;6279278;22;20004;-60
2022/03/02 04:18:24;;;;;;;27.48;15.57;;;;;;;3.69;63.73;102414.66;6279792;22;20393;-59
2022/03/02 04:20:49;;;;;;;28.15;16.60;;;;;;;3.69;64.64;102404.31;6279834;22;20035;-60
2022/03/02 04:23:14;;;;;;;28.50;16.42;;;;;;;3.70;64.55;102396.63;6278996;22;20402;-59
2022/03/02 04:25:40;;;;;;;26.50;15.38;;;;;;;3.68;64.71;102395.66;6279282;22;20011;-61
2022/03/02 04:28:05;;;;;;;26.25;16.13;;;;;;;3.60;65.15;102386.72;6279546;22;20041;-60
2022/03/02 04:30:31;;;;;;;25.52;15.77;;;;;;;3.70;65.17;102403.50;6279362;22;20408;-60
2022/03/02 04:32:57;;;;;;;29.60;17.05;;;;;;;3.67;65.35;102396.47;6274702;22;20043;-60
2022/03/02 04:35:24;;;;;;;25.73;14.88;;;;;;;3.62;63.32;102391.97;6279588;22;20007;-59
2022/03/02 04:37:49;;;;;;;33.08;16.08;;;;;;;3.62;64.48;102389.38;6279292;22;20007;-61
2022/03/02 04:40:14;;;;;;;23.88;15.00;;;;;;;3.58;65.46;102393.56;6279126;22;20090;-60
2022/03/02 04:42:40;;;;;;;27.13;15.50;;;;;;;3.56;65.01;102386.53;6279244;22;20075;-61
2022/03/02 04:45:06;;;;;;;25.85;15.73;;;;;;;3.56;64.22;102396.88;6278869;22;20106;-60
2022/03/02 04:47:32;;;;;;;25.67;15.60;;;;;;;3.53;65.53;102392.47;6279083;22;20004;-61
2022/03/02 04:49:58;;;;;;;25.55;15.25;;;;;;;3.47;64.43;102387.91;6278869;22;20058;-59
2022/03/02 04:52:23;;;;;;;29.40;16.38;;;;;;;3.47;64.84;102379.28;6279011;22;20000;-60
2022/03/02 04:55:07;;;;;;;25.77;15.38;;;;;;;3.45;64.28;102374.06;6278886;22;20003;-59
2022/03/02 04:57:43;;;;;;;27.40;15.93;;;;;;;3.46;64.07;102380.97;6279210;22;20373;-60
2022/03/02 05:00:18;;;;;;;24.77;15.48;;;;;;;3.53;65.19;102376.06;6279088;22;20003;-60
2022/03/02 05:02:43;;;;;;;27.42;15.57;;;;;;;3.52;64.84;102379.47;6252432;22;20361;-61
2022/03/02 05:05:12;;;;;;;26.92;15.70;;;;;;;3.52;64.67;102371.69;6278836;22;20035;-60
2022/03/02 05:07:37;;;;;;;29.40;15.75;;;;;;;3.52;65.39;102372.59;6279107;22;20027;-59
2022/03/02 05:10:05;;;;;;;29.13;16.27;;;;;;;3.46;65.75;102370.63;6278477;22;20404;-59
2022/03/02 05:12:30;;;;;;;27.58;15.73;;;;;;;3.46;64.98;102378.38;6278894;22;20015;-60
2022/03/02 05:14:55;;;;;;;24.33;14.90;;;;;;;3.41;64.71;102371.28;6278972;22;20008;-60
2022/03/02 05:17:21;;;;;;;25.20;15.52;;;;;;;3.41;66.49;102367.00;6279002;22;20387;-60
2022/03/02 05:19:46;;;;;;;26.13;15.38;;;;;;;3.41;64.64;102371.28;6278711;22;20039;-59
2022/03/02 05:22:11;;;;;;;26.55;15.50;;;;;;;3.36;65.54;102367.63;6278814;22;19999;-60
2022/03/02 05:24:37;;;;;;;25.25;15.00;;;;;;;3.34;64.73;102374.44;6278975;22;20000;-60
2022/03/02 05:27:03;;;;;;;27.67;16.05;;;;;;;3.32;66.08;102376.97;6279211;22;20052;-59
2022/03/02 05:29:28;;;;;;;23.85;15.02;;;;;;;3.27;66.65;102364.69;6278748;22;20058;-60
2022/03/02 05:31:54;;;;;;;25.45;15.70;;;;;;;3.28;67.05;102359.56;6278751;22;20069;-59
2022/03/02 05:34:19;;;;;;;26.05;15.02;;;;;;;3.30;64.68;102364.78;6278493;22;20026;-60
2022/03/02 05:36:45;;;;;;;27.05;14.57;;;;;;;3.28;64.94;102354.41;6278931;22;20301;-60
2022/03/02 05:39:10;;;;;;;27.08;14.63;;;;;;;3.29;63.52;102366.47;6278875;22;20010;-60
2022/03/02 05:41:35;;;;;;;26.83;14.82;;;;;;;3.32;64.27;102361.44;6279210;22;20300;-59
2022/03/02 05:44:02;;;;;;;26.77;15.48;;;;;;;3.29;64.38;102360.47;6278777;22;20007;-60
2022/03/02 05:46:27;;;;;;;28.77;15.68;;;;;;;3.26;63.81;102361.22;6278673;22;20039;-59
2022/03/02 05:48:53;;;;;;;24.17;14.52;;;;;;;3.31;63.20;102366.53;6278612;22;20010;-59
2022/03/02 05:51:19;;;;;;;27.05;15.15;;;;;;;3.28;62.08;102359.56;6279015;22;20019;-60
2022/03/02 05:53:45;;;;;;;23.42;14.13;;;;;;;3.29;61.59;102361.31;6278531;22;20003;-59
2022/03/02 05:56:11;;;;;;;28.38;14.18;;;;;;;3.27;62.43;102352.63;6278639;22;20030;-61
2022/03/02 05:58:36;;;;;;;29.50;14.40;;;;;;;3.26;62.03;102356.03;6278511;22;20047;-60
2022/03/02 06:01:02;;;;;;;23.25;13.85;;;;;;;3.22;62.42;102353.25;6278665;22;20061;-59
2022/03/02 06:03:28;;;;;;;28.70;14.27;;;;;;;3.22;63.96;102351.56;6278404;22;20010;-60
2022/03/02 06:05:53;;;;;;;23.80;14.07;;;;;;;3.24;62.79;102359.38;6278641;22;20301;-60
2022/03/02 06:08:18;;;;;;;28.00;14.13;;;;;;;3.23;62.01;102362.78;6278641;22;20004;-61
2022/03/02 06:10:47;;;;;;;24.77;14.38;;;;;;;3.24;62.14;102368.03;6278920;22;20062;-59
2022/03/02 06:13:14;;;;;;;24.45;14.82;;;;;;;3.25;63.39;102361.16;6278426;22;20011;-60
2022/03/02 06:15:39;;;;;;;34.67;14.82;;;;;;;3.21;62.59;102361.84;6278118;22;20037;-60
2022/03/02 06:18:05;;;;;;;24.15;14.02;;;;;;;3.21;62.71;102361.84;6278695;22;20047;-61
2022/03/02 06:20:31;;;;;;;22.85;14.00;;;;;;;3.21;61.15;102364.41;6278801;22;20000;-60
2022/03/02 06:22:58;;;;;;;25.25;13.95;;;;;;;3.19;61.43;102358.31;6278409;22;20069;-60
2022/03/02 06:25:23;;;;;;;22.95;13.70;;;;;;;3.22;61.00;102366.19;6278022;22;20431;-60
2022/03/02 06:27:49;;;;;;;23.83;13.48;;;;;;;3.19;62.67;102364.34;6278627;22;20016;-60
2022/03/02 06:30:14;;;;;;;25.45;14.32;;;;;;;3.21;61.92;102365.31;6280226;22;20290;-60
2022/03/02 06:32:39;;;;;;;24.00;13.73;;;;;;;3.22;61.55;102368.78;6279882;22;20087;-60
2022/03/02 06:35:06;;;;;;;26.52;14.13;;;;;;;3.21;61.93;102367.88;6279862;22;20011;-60
2022/03/02 06:37:33;;;;;;;23.02;14.40;;;;;;;3.24;61.31;102370.59;6280605;22;20003;-60
2022/03/02 06:39:59;;;;;;;21.80;13.23;;;;;;;3.22;61.12;102358.44;6280945;22;20011;-60
2022/03/02 06:42:38;;;;;;;24.33;13.55;;;;;;;3.19;60.83;102359.19;6280345;22;20000;-61
2022/03/02 06:45:16;;;;;;;23.98;13.45;;;;;;;3.21;61.70;102364.41;6280114;22;20408;-60
2022/03/02 06:47:53;;;;;;;25.30;13.50;;;;;;;3.23;61.65;102374.00;6277021;22;20007;-60
2022/03/02 06:50:24;;;;;;;25.27;13.93;;;;;;;3.22;61.32;102379.13;6279917;22;20420;-60
2022/03/02 06:52:53;;;;;;;25.17;13.32;;;;;;;3.25;61.63;102376.66;6280024;22;20006;-60
2022/03/02 06:55:18;;;;;;;23.77;13.20;;;;;;;3.25;61.97;102374.97;6280216;22;20003;-60
2022/03/02 06:57:50;;;;;;;23.67;13.70;;;;;;;3.21;62.19;102374.75;6279877;22;20018;-61
2022/03/02 07:00:16;;;;;;;20.13;12.75;;;;;;;3.22;62.30;102387.78;6279851;22;20348;-60
2022/03/02 07:03:03;;;;;;;26.02;13.60;;;;;;;3.21;62.59;102377.34;6280297;22;20035;-60
2022/03/02 07:05:29;;;;;;;24.15;13.50;;;;;;;3.29;62.14;102384.59;6279840;22;20004;-61
2022/03/02 07:07:55;;;;;;;26.48;14.07;;;;;;;3.32;62.33;102384.72;6280104;22;20010;-60
2022/03/02 07:10:20;;;;;;;22.88;13.15;;;;;;;3.37;60.61;102382.34;6279606;22;20461;-60
2022/03/02 07:12:46;;;;;;;21.80;13.35;;;;;;;3.41;61.37;102390.28;6279693;22;20046;-61
2022/03/02 07:15:12;;;;;;;22.65;13.50;;;;;;;3.43;60.26;102388.66;6279736;22;20012;-60
2022/03/02 07:17:39;;;;;;;23.38;13.15;;;;;;;3.49;60.32;102385.41;6253169;22;20027;-61
2022/03/02 07:20:07;;;;;;;21.73;12.88;;;;;;;3.52;60.64;102388.13;6280735;22;20003;-60
2022/03/02 07:22:54;;;;;;;24.33;13.70;;;;;;;3.57;60.49;102389.19;6280215;22;20022;-60
2022/03/02 07:25:29;;;;;;;22.48;13.18;;;;;;;3.66;60.53;102396.41;6279970;22;20022;-61
2022/03/02 07:27:58;;;;;;;21.73;13.23;;;;;;;3.70;61.10;102385.38;6279928;22;20004;-61
2022/03/02 07:30:25;;;;;;;25.27;14.57;;;;;;;3.80;60.15;102395.28;6279956;22;20069;-61
2022/03/02 07:32:55;;;;;;;24.00;13.63;;;;;;;3.86;59.76;102398.09;6279503;22;20398;-60
2022/03/02 07:35:22;;;;;;;22.85;13.43;;;;;;;3.91;60.55;102393.09;6279659;22;20086;-60
2022/03/02 07:37:48;;;;;;;23.90;14.07;;;;;;;4.10;61.27;102393.84;6279185;22;20007;-61
2022/03/02 07:40:14;;;;;;;26.70;14.25;;;;;;;4.27;60.02;102386.72;6279081;22;20000;-61
2022/03/02 07:42:40;;;;;;;22.92;13.13;;;;;;;4.41;57.03;102389.81;6280223;22;20134;-61
2022/03/02 07:45:06;;;;;;;22.20;13.45;;;;;;;4.60;57.23;102384.47;6280052;22;20031;-60
2022/03/02 07:47:32;;;;;;;24.75;13.90;;;;;;;4.80;56.99;102375.69;6279361;22;20405;-61
2022/03/02 07:49:58;;;;;;;22.00;13.63;;;;;;;4.88;55.06;102373.31;6279579;22;20354;-61
2022/03/02 07:52:26;;;;;;;25.63;13.68;;;;;;;4.98;55.57;102369.34;6279601;22;20044;-61
2022/03/02 07:55:03;;;;;;;22.33;13.75;;;;;;;5.14;55.90;102367.31;6279645;22;20031;-60
2022/03/02 07:57:29;;;;;;;20.95;13.75;;;;;;;5.43;53.60;102375.16;6279850;22;20011;-61
2022/03/02 07:59:57;;;;;;;23.15;13.18;;;;;;;5.81;53.04;102361.66;6279144;22;20034;-60
2022/03/02 08:02:24;;;;;;;22.48;13.93;;;;;;;6.19;51.37;102367.16;6279565;22;20419;-61
2022/03/02 08:04:54;;;;;;;20.42;13.30;;;;;;;6.55;50.36;102357.78;6279566;22;20473;-60
2022/03/02 08:07:20;;;;;;;25.00;13.50;;;;;;;6.86;49.10;102354.25;6279642;22;19999;-61
2022/03/02 08:09:45;;;;;;;26.08;14.55;;;;;;;7.25;47.73;102350.91;6279686;22;20014;-61
2022/03/02 08:12:11;;;;;;;21.02;13.45;;;;;;;7.59;46.41;102350.84;6279218;22;20078;-60
2022/03/02 08:14:36;;;;;;;25.88;13.52;;;;;;;7.90;46.44;102349.81;6279657;22;20003;-59
2022/03/02 08:17:03;;;;;;;23.15;13.38;;;;;;;7.94;44.62;102348.16;6279613;22;20082;-60
2022/03/02 08:19:30;;;;;;;24.58;13.45;;;;;;;8.06;43.73;102352.75;6279441;22;20038;-61
2022/03/02 08:21:58;;;;;;;20.17;12.98;;;;;;;8.43;43.97;102344.84;6279957;22;20015;-60
2022/03/02 08:24:27;;;;;;;27.50;13.55;;;;;;;8.84;43.76;102339.50;6279502;22;20004;-60
2022/03/02 08:27:00;;;;;;;21.80;13.68;;;;;;;9.01;42.43;102346.78;6279259;22;20438;-60
2022/03/02 08:29:31;;;;;;;24.10;13.15;;;;;;;9.18;41.92;102349.66;6279382;22;20038;-61
2022/03/02 08:31:59;;;;;;;22.38;13.50;;;;;;;9.24;42.67;102347.16;6279315;22;20108;-59
2022/03/02 08:34:25;;;;;;;20.08;12.93;;;;;;;9.20;42.48;102345.34;6279960;22;20007;-60
2022/03/02 08:36:53;;;;;;;22.05;13.68;;;;;;;8.88;42.63;102339.59;6279445;22;20080;-61
2022/03/02 08:39:19;;;;;;;20.13;12.95;;;;;;;8.73;44.02;102334.97;6252258;22;20397;-61
2022/03/02 08:41:45;;;;;;;18.08;12.27;;;;;;;8.56;43.71;102354.66;6278970;22;20065;-59
2022/03/02 08:44:12;;;;;;;20.52;13.05;;;;;;;8.36;43.32;102337.75;6279092;22;20007;-59
2022/03/02 08:46:38;;;;;;;23.60;13.50;;;;;;;8.26;43.00;102341.00;6279582;22;20018;-60
2022/03/02 08:49:04;;;;;;;18.70;12.25;;;;;;;8.12;42.95;102337.22;6278755;22;20007;-60
2022/03/02 08:51:30;;;;;;;19.25;12.98;;;;;;;8.02;43.45;102341.34;6278945;22;20036;-61
2022/03/02 08:53:59;;;;;;;20.60;13.05;;;;;;;8.08;45.06;102340.63;6278805;22;20004;-60
2022/03/02 08:56:25;;;;;;;21.98;13.25;;;;;;;8.08;45.02;102332.81;6279083;22;20113;-60
2022/03/02 08:58:52;;;;;;;23.20;13.55;;;;;;;8.12;44.49;102338.13;6278552;22;20008;-60
2022/03/02 09:01:18;;;;;;;23.20;13.25;;;;;;;8.24;44.00;102327.03;6279645;22;20010;-61
2022/03/02 09:03:46;;;;;;;24.67;13.02;;;;;;;8.36;44.48;102338.63;6279279;22;20012;-60
2022/03/02 09:06:14;;;;;;;19.30;13.20;;;;;;;8.49;43.72;102337.13;6279382;22;20008;-60
2022/03/02 09:08:39;;;;;;;22.52;13.82;;;;;;;8.55;45.24;102331.16;6278877;22;20149;-60
2022/03/02 09:11:06;;;;;;;19.30;12.50;;;;;;;8.69;43.35;102322.72;6279035;22;20401;-60
2022/03/02 09:13:31;;;;;;;21.80;12.90;;;;;;;8.83;43.81;102319.50;6278138;22;20004;-61
2022/03/02 09:15:57;;;;;;;20.83;12.75;;;;;;;9.03;43.15;102321.56;6278917;22;20416;-61
2022/03/02 09:18:22;;;;;;;18.10;12.35;;;;;;;9.19;43.89;102327.91;6278878;22;20012;-60
2022/03/02 09:20:58;;;;;;;19.88;12.70;;;;;;;9.29;43.18;102321.13;6279061;22;20086;-60
2022/03/02 09:23:28;;;;;;;19.70;13.13;;;;;;;9.22;42.37;102320.13;6278945;22;20012;-60
2022/03/02 09:26:02;;;;;;;20.25;11.88;;;;;;;9.30;42.19;102321.16;6278223;22;20415;-61
2022/03/02 09:28:32;;;;;;;18.45;11.85;;;;;;;9.38;40.73;102321.25;6277994;22;20020;-61
2022/03/02 09:31:02;;;;;;;19.17;12.27;;;;;;;9.51;40.58;102306.66;6278889;22;20086;-60
2022/03/02 09:33:28;;;;;;;19.58;11.70;;;;;;;9.57;41.49;102310.22;6278324;22;20406;-61
2022/03/02 09:35:56;;;;;;;20.80;12.98;;;;;;;9.76;41.23;102319.19;6278706;22;20007;-61
2022/03/02 09:38:23;;;;;;;18.95;12.20;;;;;;;9.96;40.36;102306.38;6251946;22;20094;-61
2022/03/02 09:40:50;;;;;;;19.33;12.23;;;;;;;10.02;40.61;102309.97;6278383;22;20061;-60
2022/03/02 09:43:19;;;;;;;17.50;11.98;;;;;;;10.09;40.50;102310.88;6278692;22;20008;-61
2022/03/02 09:45:48;;;;;;;21.35;12.55;;;;;;;10.13;40.61;102304.84;6278791;22;20008;-61
2022/03/02 09:48:41;;;;;;;17.02;11.75;;;;;;;10.34;40.82;102299.91;6278702;22;20008;-60
2022/03/02 09:51:08;;;;;;;18.50;11.88;;;;;;;10.21;39.10;102299.75;6278553;22;20018;-60
2022/03/02 09:53:35;;;;;;;18.05;11.40;;;;;;;10.24;37.83;102295.41;6278306;22;20019;-61
2022/03/02 09:56:04;;;;;;;18.38;11.88;;;;;;;10.28;38.36;102298.94;6278645;22;20012;-61
2022/03/02 09:58:30;;;;;;;17.65;11.45;;;;;;;10.46;38.11;102292.16;6251058;22;20355;-60
2022/03/02 10:00:57;;;;;;;17.50;10.95;;;;;;;10.55;37.92;102291.41;6275923;22;20016;-60
2022/03/02 10:03:26;;;;;;;19.67;11.82;;;;;;;10.58;39.36;102286.16;6278300;22;20007;-62
2022/03/02 10:05:53;;;;;;;19.40;11.73;;;;;;;10.60;39.74;102281.81;6278461;22;20007;-61
2022/03/02 10:08:20;;;;;;;19.60;11.10;;;;;;;10.65;37.74;102294.97;6278748;22;20011;-61
2022/03/02 10:10:48;;;;;;;16.15;11.20;;;;;;;10.65;36.19;102292.34;6278094;22;20090;-61
2022/03/02 10:13:16;;;;;;;17.38;10.65;;;;;;;10.72;35.42;102286.31;6278066;22;20094;-60
2022/03/02 10:15:42;;;;;;;15.73;11.50;;;;;;;10.83;36.08;102289.91;6278677;22;20350;-60
2022/03/02 10:18:11;;;;;;;16.50;11.43;;;;;;;10.94;36.86;102285.63;6278244;22;20014;-60
2022/03/02 10:20:39;;;;;;;16.15;11.10;;;;;;;11.05;35.55;102294.47;6278240;22;20003;-61
2022/03/02 10:23:21;;;;;;;18.00;11.20;;;;;;;11.16;37.05;102286.66;6278062;22;20082;-60
2022/03/02 10:25:57;;;;;;;16.17;10.50;;;;;;;11.21;36.39;102290.22;6278279;22;20008;-61
2022/03/02 10:28:42;;;;;;;15.88;10.82;;;;;;;11.08;36.82;102291.00;6277961;22;20038;-61
2022/03/02 10:31:17;;;;;;;16.38;10.68;;;;;;;11.09;35.69;102296.22;6277890;22;20015;-61
2022/03/02 10:33:53;;;;;;;13.77;9.88;;;;;;;11.12;34.45;102285.75;6278098;22;20060;-61
2022/03/02 10:36:20;;;;;;;14.57;10.35;;;;;;;11.09;33.89;102284.84;6278277;22;20428;-60
2022/03/02 10:39:03;;;;;;;15.23;10.70;;;;;;;11.10;35.53;102268.28;6278260;22;20064;-61
2022/03/02 10:41:28;;;;;;;;;;;;;;;11.33;35.74;102277.19;6278690;22;20004;-61
2022/03/02 10:44:01;;;;;;;15.27;10.30;;;;;;;11.12;33.62;102277.03;6278053;22;19903;-61
2022/03/02 10:46:27;;;;;;;16.58;10.70;;;;;;;11.13;34.55;102281.41;6277169;22;20011;-60
2022/03/02 10:49:14;;;;;;;18.05;12.23;;;;;;;11.20;36.16;102284.94;6275689;22;20004;-60
2022/03/02 10:51:41;;;;;;;17.88;11.07;;;;;;;11.08;34.23;102283.13;6276257;22;20014;-60
2022/03/02 10:54:07;;;;;;;21.77;13.98;;;;;;;11.22;35.55;102275.38;6276322;22;20007;-60
2022/03/02 10:56:39;;;;;;;16.15;10.93;;;;;;;11.28;35.87;102278.88;6276562;22;20094;-61
2022/03/02 10:59:16;;;;;;;17.45;10.65;;;;;;;11.30;34.71;102281.50;6276008;22;20373;-59
2022/03/02 11:01:44;;;;;;;17.48;11.30;;;;;;;11.37;33.96;102265.84;6276285;22;20016;-59
2022/03/02 11:04:10;;;;;;;17.00;10.85;;;;;;;11.54;35.19;102265.94;6276018;22;20015;-54
2022/03/02 11:06:37;;;;;;;16.10;10.02;;;;;;;11.45;34.08;102263.25;6275877;22;20414;-58
2022/03/02 11:09:03;;;;;;;15.52;10.68;;;;;;;11.47;35.49;102246.69;6276315;22;20003;-59
2022/03/02 11:11:35;;;;;;;16.67;11.57;;;;;;;11.46;33.11;102252.78;6276100;22;20282;-59
2022/03/02 11:14:01;;;;;;;14.30;10.40;;;;;;;11.61;33.34;102262.47;6276191;22;20011;-58
2022/03/02 11:16:27;;;;;;;16.55;11.13;;;;;;;11.65;33.31;102252.88;6277298;22;20019;-59